sensor_id;sensor_type;location;lat;lon;timestamp;temperature;humidity
76293;DHT22;67256;51.154;4.164;2023-04-30T00:00:44;13.00;57.60
76293;DHT22;67256;51.154;4.164;2023-04-30T00:03:10;13.00;57.70
76293;DHT22;67256;51.154;4.164;2023-04-30T00:05:36;13.00;57.70
76293;DHT22;67256;51.154;4.164;2023-04-30T00:08:03;13.00;58.00
76293;DHT22;67256;51.154;4.164;2023-04-30T00:10:29;13.00;57.80
76293;DHT22;67256;51.154;4.164;2023-04-30T00:12:55;13.00;58.00
76293;DHT22;67256;51.154;4.164;2023-04-30T00:15:21;13.00;58.00
76293;DHT22;67256;51.154;4.164;2023-04-30T00:17:47;13.00;58.00
76293;DHT22;67256;51.154;4.164;2023-04-30T00:20:13;13.00;58.10
76293;DHT22;67256;51.154;4.164;2023-04-30T00:22:40;12.90;58.20
76293;DHT22;67256;51.154;4.164;2023-04-30T00:25:05;12.90;58.20
76293;DHT22;67256;51.154;4.164;2023-04-30T00:27:31;12.80;58.60
76293;DHT22;67256;51.154;4.164;2023-04-30T00:29:57;12.90;58.40
76293;DHT22;67256;51.154;4.164;2023-04-30T00:32:23;12.90;58.30
76293;DHT22;67256;51.154;4.164;2023-04-30T00:34:49;12.90;58.50
76293;DHT22;67256;51.154;4.164;2023-04-30T00:37:14;12.90;58.40
76293;DHT22;67256;51.154;4.164;2023-04-30T00:39:40;12.90;58.30
76293;DHT22;67256;51.154;4.164;2023-04-30T00:42:06;12.90;58.40
76293;DHT22;67256;51.154;4.164;2023-04-30T00:44:32;12.80;58.40
76293;DHT22;67256;51.154;4.164;2023-04-30T00:46:58;12.70;58.80
76293;DHT22;67256;51.154;4.164;2023-04-30T00:49:24;12.70;59.10
76293;DHT22;67256;51.154;4.164;2023-04-30T00:51:50;12.70;58.80
76293;DHT22;67256;51.154;4.164;2023-04-30T00:54:17;12.60;59.10
76293;DHT22;67256;51.154;4.164;2023-04-30T00:56:45;12.70;59.00
76293;DHT22;67256;51.154;4.164;2023-04-30T00:59:12;12.70;58.90
76293;DHT22;67256;51.154;4.164;2023-04-30T01:01:38;12.60;59.30
76293;DHT22;67256;51.154;4.164;2023-04-30T01:04:04;12.50;59.60
76293;DHT22;67256;51.154;4.164;2023-04-30T01:06:30;12.30;60.30
76293;DHT22;67256;51.154;4.164;2023-04-30T01:08:56;12.20;61.00
76293;DHT22;67256;51.154;4.164;2023-04-30T01:16:39;12.10;61.50
76293;DHT22;67256;51.154;4.164;2023-04-30T01:19:28;12.30;61.70
76293;DHT22;67256;51.154;4.164;2023-04-30T01:21:57;12.40;60.90
76293;DHT22;67256;51.154;4.164;2023-04-30T01:24:42;12.40;60.60
76293;DHT22;67256;51.154;4.164;2023-04-30T01:30:05;12.40;60.90
76293;DHT22;67256;51.154;4.164;2023-04-30T01:32:31;12.40;60.80
76293;DHT22;67256;51.154;4.164;2023-04-30T01:34:57;12.40;60.80
76293;DHT22;67256;51.154;4.164;2023-04-30T01:43:11;12.50;60.60
76293;DHT22;67256;51.154;4.164;2023-04-30T01:46:17;12.50;60.60
76293;DHT22;67256;51.154;4.164;2023-04-30T01:48:54;12.50;60.80
76293;DHT22;67256;51.154;4.164;2023-04-30T01:54:10;12.20;61.50
76293;DHT22;67256;51.154;4.164;2023-04-30T01:56:43;12.30;61.30
76293;DHT22;67256;51.154;4.164;2023-04-30T01:59:10;12.30;61.20
76293;DHT22;67256;51.154;4.164;2023-04-30T02:01:38;12.30;61.00
76293;DHT22;67256;51.154;4.164;2023-04-30T02:04:03;12.30;60.90
76293;DHT22;67256;51.154;4.164;2023-04-30T02:06:29;12.30;61.10
76293;DHT22;67256;51.154;4.164;2023-04-30T02:08:56;12.30;61.10
76293;DHT22;67256;51.154;4.164;2023-04-30T02:11:27;12.30;61.40
76293;DHT22;67256;51.154;4.164;2023-04-30T02:13:53;12.30;61.30
76293;DHT22;67256;51.154;4.164;2023-04-30T02:16:18;12.30;61.50
76293;DHT22;67256;51.154;4.164;2023-04-30T02:18:45;12.30;61.50
76293;DHT22;67256;51.154;4.164;2023-04-30T02:21:11;12.20;61.80
76293;DHT22;67256;51.154;4.164;2023-04-30T02:23:36;12.20;61.80
76293;DHT22;67256;51.154;4.164;2023-04-30T02:26:02;12.20;61.90
76293;DHT22;67256;51.154;4.164;2023-04-30T02:28:28;12.20;62.00
76293;DHT22;67256;51.154;4.164;2023-04-30T02:30:54;12.20;62.90
76293;DHT22;67256;51.154;4.164;2023-04-30T02:33:19;12.20;62.30
76293;DHT22;67256;51.154;4.164;2023-04-30T02:35:45;12.10;62.50
76293;DHT22;67256;51.154;4.164;2023-04-30T02:38:11;12.10;62.70
76293;DHT22;67256;51.154;4.164;2023-04-30T02:40:36;12.10;62.70
76293;DHT22;67256;51.154;4.164;2023-04-30T02:43:02;12.20;62.60
76293;DHT22;67256;51.154;4.164;2023-04-30T02:45:30;12.20;62.30
76293;DHT22;67256;51.154;4.164;2023-04-30T02:47:56;12.20;62.30
76293;DHT22;67256;51.154;4.164;2023-04-30T02:50:21;12.10;62.30
76293;DHT22;67256;51.154;4.164;2023-04-30T02:52:47;12.10;62.10
76293;DHT22;67256;51.154;4.164;2023-04-30T02:55:13;12.10;62.40
76293;DHT22;67256;51.154;4.164;2023-04-30T02:57:39;12.10;62.70
76293;DHT22;67256;51.154;4.164;2023-04-30T03:00:05;12.10;62.80
76293;DHT22;67256;51.154;4.164;2023-04-30T03:02:31;12.10;62.80
76293;DHT22;67256;51.154;4.164;2023-04-30T03:04:57;12.00;62.90
76293;DHT22;67256;51.154;4.164;2023-04-30T03:07:23;12.00;63.10
76293;DHT22;67256;51.154;4.164;2023-04-30T03:09:48;12.00;63.00
76293;DHT22;67256;51.154;4.164;2023-04-30T03:12:14;12.00;63.20
76293;DHT22;67256;51.154;4.164;2023-04-30T03:14:40;12.00;63.30
76293;DHT22;67256;51.154;4.164;2023-04-30T03:17:06;12.00;63.30
76293;DHT22;67256;51.154;4.164;2023-04-30T03:19:32;12.00;63.30
76293;DHT22;67256;51.154;4.164;2023-04-30T03:21:58;11.90;63.60
76293;DHT22;67256;51.154;4.164;2023-04-30T03:24:24;11.90;64.00
76293;DHT22;67256;51.154;4.164;2023-04-30T03:26:50;11.90;64.10
76293;DHT22;67256;51.154;4.164;2023-04-30T03:29:16;11.90;64.10
76293;DHT22;67256;51.154;4.164;2023-04-30T03:31:41;11.90;64.30
76293;DHT22;67256;51.154;4.164;2023-04-30T03:34:08;11.90;64.40
76293;DHT22;67256;51.154;4.164;2023-04-30T03:36:34;11.90;64.30
76293;DHT22;67256;51.154;4.164;2023-04-30T03:39:00;11.90;64.40
76293;DHT22;67256;51.154;4.164;2023-04-30T03:41:26;11.90;64.20
76293;DHT22;67256;51.154;4.164;2023-04-30T03:43:52;11.80;64.10
76293;DHT22;67256;51.154;4.164;2023-04-30T03:46:17;11.80;64.20
76293;DHT22;67256;51.154;4.164;2023-04-30T03:48:43;11.80;64.50
76293;DHT22;67256;51.154;4.164;2023-04-30T03:51:09;11.80;64.40
76293;DHT22;67256;51.154;4.164;2023-04-30T03:53:35;11.80;64.50
76293;DHT22;67256;51.154;4.164;2023-04-30T03:56:01;11.70;64.60
76293;DHT22;67256;51.154;4.164;2023-04-30T03:58:28;11.70;64.70
76293;DHT22;67256;51.154;4.164;2023-04-30T04:00:54;11.70;64.80
76293;DHT22;67256;51.154;4.164;2023-04-30T04:03:20;11.70;65.20
76293;DHT22;67256;51.154;4.164;2023-04-30T04:05:46;11.60;65.10
76293;DHT22;67256;51.154;4.164;2023-04-30T04:08:12;11.60;65.10
76293;DHT22;67256;51.154;4.164;2023-04-30T04:10:38;11.70;65.00
76293;DHT22;67256;51.154;4.164;2023-04-30T04:13:05;11.60;65.40
76293;DHT22;67256;51.154;4.164;2023-04-30T04:15:32;11.60;65.20
76293;DHT22;67256;51.154;4.164;2023-04-30T04:17:58;11.60;65.50
76293;DHT22;67256;51.154;4.164;2023-04-30T04:20:24;11.50;65.90
76293;DHT22;67256;51.154;4.164;2023-04-30T04:22:49;11.50;65.90
76293;DHT22;67256;51.154;4.164;2023-04-30T04:25:15;11.50;65.90
76293;DHT22;67256;51.154;4.164;2023-04-30T04:27:42;11.50;65.80
76293;DHT22;67256;51.154;4.164;2023-04-30T04:30:08;11.50;66.10
76293;DHT22;67256;51.154;4.164;2023-04-30T04:32:34;11.50;65.90
76293;DHT22;67256;51.154;4.164;2023-04-30T04:35:12;11.50;65.80
76293;DHT22;67256;51.154;4.164;2023-04-30T04:37:37;11.60;65.80
76293;DHT22;67256;51.154;4.164;2023-04-30T04:40:03;11.60;65.60
76293;DHT22;67256;51.154;4.164;2023-04-30T04:42:29;11.60;65.80
76293;DHT22;67256;51.154;4.164;2023-04-30T04:44:56;11.60;65.60
76293;DHT22;67256;51.154;4.164;2023-04-30T04:47:22;11.60;65.60
76293;DHT22;67256;51.154;4.164;2023-04-30T04:49:47;11.60;65.60
76293;DHT22;67256;51.154;4.164;2023-04-30T04:52:13;11.60;65.60
76293;DHT22;67256;51.154;4.164;2023-04-30T04:54:39;11.70;65.60
76293;DHT22;67256;51.154;4.164;2023-04-30T04:57:05;11.70;65.60
76293;DHT22;67256;51.154;4.164;2023-04-30T04:59:31;11.70;65.80
76293;DHT22;67256;51.154;4.164;2023-04-30T05:01:56;11.70;66.10
76293;DHT22;67256;51.154;4.164;2023-04-30T05:04:22;11.70;66.30
76293;DHT22;67256;51.154;4.164;2023-04-30T05:06:48;11.60;66.50
76293;DHT22;67256;51.154;4.164;2023-04-30T05:09:13;11.60;66.70
76293;DHT22;67256;51.154;4.164;2023-04-30T05:11:40;11.70;66.60
76293;DHT22;67256;51.154;4.164;2023-04-30T05:14:06;11.70;66.70
76293;DHT22;67256;51.154;4.164;2023-04-30T05:16:32;11.80;66.50
76293;DHT22;67256;51.154;4.164;2023-04-30T05:18:58;11.80;66.60
76293;DHT22;67256;51.154;4.164;2023-04-30T05:21:23;11.90;66.60
76293;DHT22;67256;51.154;4.164;2023-04-30T05:23:53;12.00;66.70
76293;DHT22;67256;51.154;4.164;2023-04-30T05:26:19;12.00;66.30
76293;DHT22;67256;51.154;4.164;2023-04-30T05:28:44;12.10;66.20
76293;DHT22;67256;51.154;4.164;2023-04-30T05:31:10;12.10;66.10
76293;DHT22;67256;51.154;4.164;2023-04-30T05:33:36;12.00;66.50
76293;DHT22;67256;51.154;4.164;2023-04-30T05:36:01;12.00;66.60
76293;DHT22;67256;51.154;4.164;2023-04-30T05:38:28;12.00;66.80
76293;DHT22;67256;51.154;4.164;2023-04-30T05:40:53;12.00;66.70
76293;DHT22;67256;51.154;4.164;2023-04-30T05:43:19;12.00;67.00
76293;DHT22;67256;51.154;4.164;2023-04-30T05:45:45;11.90;67.40
76293;DHT22;67256;51.154;4.164;2023-04-30T05:48:10;12.00;67.60
76293;DHT22;67256;51.154;4.164;2023-04-30T05:50:36;12.10;67.50
76293;DHT22;67256;51.154;4.164;2023-04-30T05:53:02;12.10;67.20
76293;DHT22;67256;51.154;4.164;2023-04-30T05:55:27;12.10;67.50
76293;DHT22;67256;51.154;4.164;2023-04-30T05:57:53;12.00;67.70
76293;DHT22;67256;51.154;4.164;2023-04-30T06:00:18;12.00;68.00
76293;DHT22;67256;51.154;4.164;2023-04-30T06:02:44;11.90;68.20
76293;DHT22;67256;51.154;4.164;2023-04-30T06:05:10;12.00;68.40
76293;DHT22;67256;51.154;4.164;2023-04-30T06:07:36;12.00;68.30
76293;DHT22;67256;51.154;4.164;2023-04-30T06:10:02;12.00;68.60
76293;DHT22;67256;51.154;4.164;2023-04-30T06:12:28;12.00;68.40
76293;DHT22;67256;51.154;4.164;2023-04-30T06:14:54;12.00;68.60
76293;DHT22;67256;51.154;4.164;2023-04-30T06:17:20;12.10;68.40
76293;DHT22;67256;51.154;4.164;2023-04-30T06:19:46;12.10;68.60
76293;DHT22;67256;51.154;4.164;2023-04-30T06:22:11;12.10;68.80
76293;DHT22;67256;51.154;4.164;2023-04-30T06:24:37;12.10;69.10
76293;DHT22;67256;51.154;4.164;2023-04-30T06:27:03;12.30;68.40
76293;DHT22;67256;51.154;4.164;2023-04-30T06:29:29;12.30;68.60
76293;DHT22;67256;51.154;4.164;2023-04-30T06:31:55;12.30;68.50
76293;DHT22;67256;51.154;4.164;2023-04-30T06:34:20;12.30;68.10
76293;DHT22;67256;51.154;4.164;2023-04-30T06:36:46;12.40;68.30
76293;DHT22;67256;51.154;4.164;2023-04-30T06:39:15;12.50;68.10
76293;DHT22;67256;51.154;4.164;2023-04-30T06:41:41;12.60;68.10
76293;DHT22;67256;51.154;4.164;2023-04-30T06:44:07;12.50;67.70
76293;DHT22;67256;51.154;4.164;2023-04-30T06:46:33;12.40;68.30
76293;DHT22;67256;51.154;4.164;2023-04-30T06:48:59;12.30;68.50
76293;DHT22;67256;51.154;4.164;2023-04-30T06:51:25;12.30;68.20
76293;DHT22;67256;51.154;4.164;2023-04-30T06:53:51;12.30;68.00
76293;DHT22;67256;51.154;4.164;2023-04-30T06:56:17;12.30;67.80
76293;DHT22;67256;51.154;4.164;2023-04-30T06:58:42;12.30;68.20
76293;DHT22;67256;51.154;4.164;2023-04-30T07:01:08;12.40;67.70
76293;DHT22;67256;51.154;4.164;2023-04-30T07:03:34;12.50;67.70
76293;DHT22;67256;51.154;4.164;2023-04-30T07:06:00;12.50;67.90
76293;DHT22;67256;51.154;4.164;2023-04-30T07:08:25;12.60;67.80
76293;DHT22;67256;51.154;4.164;2023-04-30T07:10:51;12.50;68.30
76293;DHT22;67256;51.154;4.164;2023-04-30T07:13:17;12.60;67.90
76293;DHT22;67256;51.154;4.164;2023-04-30T07:15:42;12.60;67.90
76293;DHT22;67256;51.154;4.164;2023-04-30T07:18:08;12.60;68.60
76293;DHT22;67256;51.154;4.164;2023-04-30T07:20:34;12.60;68.60
76293;DHT22;67256;51.154;4.164;2023-04-30T07:23:00;12.70;68.50
76293;DHT22;67256;51.154;4.164;2023-04-30T07:25:25;12.70;68.00
76293;DHT22;67256;51.154;4.164;2023-04-30T07:27:51;12.80;67.90
76293;DHT22;67256;51.154;4.164;2023-04-30T07:30:17;12.80;67.80
76293;DHT22;67256;51.154;4.164;2023-04-30T07:32:43;12.90;67.30
76293;DHT22;67256;51.154;4.164;2023-04-30T07:35:09;12.80;67.50
76293;DHT22;67256;51.154;4.164;2023-04-30T07:37:36;12.70;67.10
76293;DHT22;67256;51.154;4.164;2023-04-30T07:40:02;12.70;67.50
76293;DHT22;67256;51.154;4.164;2023-04-30T07:42:28;12.70;67.80
76293;DHT22;67256;51.154;4.164;2023-04-30T07:44:54;12.70;68.80
76293;DHT22;67256;51.154;4.164;2023-04-30T07:47:19;12.90;68.10
76293;DHT22;67256;51.154;4.164;2023-04-30T07:49:46;12.90;67.70
76293;DHT22;67256;51.154;4.164;2023-04-30T07:52:12;13.00;68.00
76293;DHT22;67256;51.154;4.164;2023-04-30T07:54:38;13.10;67.50
76293;DHT22;67256;51.154;4.164;2023-04-30T07:57:05;13.10;67.50
76293;DHT22;67256;51.154;4.164;2023-04-30T07:59:31;13.10;66.80
76293;DHT22;67256;51.154;4.164;2023-04-30T08:01:57;13.10;66.70
76293;DHT22;67256;51.154;4.164;2023-04-30T08:04:23;13.20;67.00
76293;DHT22;67256;51.154;4.164;2023-04-30T08:06:49;13.30;66.50
76293;DHT22;67256;51.154;4.164;2023-04-30T08:09:15;13.30;66.80
76293;DHT22;67256;51.154;4.164;2023-04-30T08:11:41;13.30;66.80
76293;DHT22;67256;51.154;4.164;2023-04-30T08:14:07;13.40;66.80
76293;DHT22;67256;51.154;4.164;2023-04-30T08:16:33;13.40;66.60
76293;DHT22;67256;51.154;4.164;2023-04-30T08:18:59;13.30;66.90
76293;DHT22;67256;51.154;4.164;2023-04-30T08:21:25;13.30;67.00
76293;DHT22;67256;51.154;4.164;2023-04-30T08:23:53;13.30;67.00
76293;DHT22;67256;51.154;4.164;2023-04-30T08:26:19;13.40;66.90
76293;DHT22;67256;51.154;4.164;2023-04-30T08:28:45;13.40;66.70
76293;DHT22;67256;51.154;4.164;2023-04-30T08:31:11;13.40;66.60
76293;DHT22;67256;51.154;4.164;2023-04-30T08:33:37;13.50;66.70
76293;DHT22;67256;51.154;4.164;2023-04-30T08:36:03;13.30;66.10
76293;DHT22;67256;51.154;4.164;2023-04-30T08:38:29;13.20;67.20
76293;DHT22;67256;51.154;4.164;2023-04-30T08:41:11;13.20;67.50
76293;DHT22;67256;51.154;4.164;2023-04-30T08:43:38;13.10;66.80
76293;DHT22;67256;51.154;4.164;2023-04-30T08:46:04;13.20;67.50
76293;DHT22;67256;51.154;4.164;2023-04-30T08:48:30;13.20;67.90
76293;DHT22;67256;51.154;4.164;2023-04-30T08:51:00;13.40;67.20
76293;DHT22;67256;51.154;4.164;2023-04-30T08:53:27;13.50;67.00
76293;DHT22;67256;51.154;4.164;2023-04-30T08:55:53;13.50;66.00
76293;DHT22;67256;51.154;4.164;2023-04-30T08:58:20;13.60;65.80
76293;DHT22;67256;51.154;4.164;2023-04-30T09:00:45;13.70;65.50
76293;DHT22;67256;51.154;4.164;2023-04-30T09:03:11;13.60;64.50
76293;DHT22;67256;51.154;4.164;2023-04-30T09:05:37;13.60;65.20
76293;DHT22;67256;51.154;4.164;2023-04-30T09:08:03;13.60;65.40
76293;DHT22;67256;51.154;4.164;2023-04-30T09:10:31;13.60;64.70
76293;DHT22;67256;51.154;4.164;2023-04-30T09:13:02;13.70;64.70
76293;DHT22;67256;51.154;4.164;2023-04-30T09:15:29;13.80;64.40
76293;DHT22;67256;51.154;4.164;2023-04-30T09:18:15;13.80;64.60
76293;DHT22;67256;51.154;4.164;2023-04-30T09:20:56;13.90;64.60
76293;DHT22;67256;51.154;4.164;2023-04-30T09:23:23;13.90;64.50
76293;DHT22;67256;51.154;4.164;2023-04-30T09:25:49;13.90;64.90
76293;DHT22;67256;51.154;4.164;2023-04-30T09:28:15;14.00;64.50
76293;DHT22;67256;51.154;4.164;2023-04-30T09:30:41;13.90;65.20
76293;DHT22;67256;51.154;4.164;2023-04-30T09:33:07;14.00;64.20
76293;DHT22;67256;51.154;4.164;2023-04-30T09:35:38;14.00;63.30
76293;DHT22;67256;51.154;4.164;2023-04-30T09:38:04;14.00;63.60
76293;DHT22;67256;51.154;4.164;2023-04-30T09:40:39;13.90;63.90
76293;DHT22;67256;51.154;4.164;2023-04-30T09:43:05;14.00;64.00
76293;DHT22;67256;51.154;4.164;2023-04-30T09:45:41;14.10;63.50
76293;DHT22;67256;51.154;4.164;2023-04-30T09:48:10;14.10;62.90
76293;DHT22;67256;51.154;4.164;2023-04-30T09:50:39;14.20;63.50
76293;DHT22;67256;51.154;4.164;2023-04-30T09:53:07;14.20;64.00
76293;DHT22;67256;51.154;4.164;2023-04-30T09:55:36;14.30;63.10
76293;DHT22;67256;51.154;4.164;2023-04-30T09:58:05;14.30;62.30
76293;DHT22;67256;51.154;4.164;2023-04-30T10:00:32;14.10;62.60
76293;DHT22;67256;51.154;4.164;2023-04-30T10:03:00;14.00;61.40
76293;DHT22;67256;51.154;4.164;2023-04-30T10:05:26;13.90;61.50
76293;DHT22;67256;51.154;4.164;2023-04-30T10:07:53;14.00;61.10
76293;DHT22;67256;51.154;4.164;2023-04-30T10:10:19;14.10;61.20
76293;DHT22;67256;51.154;4.164;2023-04-30T10:12:55;14.30;61.10
76293;DHT22;67256;51.154;4.164;2023-04-30T10:15:40;14.30;60.80
76293;DHT22;67256;51.154;4.164;2023-04-30T10:18:16;14.30;60.10
76293;DHT22;67256;51.154;4.164;2023-04-30T10:20:46;14.30;59.30
76293;DHT22;67256;51.154;4.164;2023-04-30T10:23:13;14.30;58.40
76293;DHT22;67256;51.154;4.164;2023-04-30T10:25:39;14.30;56.50
76293;DHT22;67256;51.154;4.164;2023-04-30T10:28:07;14.30;55.80
76293;DHT22;67256;51.154;4.164;2023-04-30T10:30:34;14.40;55.60
76293;DHT22;67256;51.154;4.164;2023-04-30T10:35:34;14.60;55.80
76293;DHT22;67256;51.154;4.164;2023-04-30T10:38:31;14.60;54.70
76293;DHT22;67256;51.154;4.164;2023-04-30T10:40:58;14.70;55.90
76293;DHT22;67256;51.154;4.164;2023-04-30T10:43:26;14.70;55.00
76293;DHT22;67256;51.154;4.164;2023-04-30T10:45:57;14.80;54.20
76293;DHT22;67256;51.154;4.164;2023-04-30T10:48:23;14.90;54.80
76293;DHT22;67256;51.154;4.164;2023-04-30T10:50:56;14.90;54.70
76293;DHT22;67256;51.154;4.164;2023-04-30T10:53:23;15.00;54.70
76293;DHT22;67256;51.154;4.164;2023-04-30T10:56:00;15.10;53.00
76293;DHT22;67256;51.154;4.164;2023-04-30T10:58:33;15.10;52.30
76293;DHT22;67256;51.154;4.164;2023-04-30T11:03:36;15.10;53.00
76293;DHT22;67256;51.154;4.164;2023-04-30T11:06:12;15.10;52.30
76293;DHT22;67256;51.154;4.164;2023-04-30T11:08:42;14.90;53.60
76293;DHT22;67256;51.154;4.164;2023-04-30T11:11:11;14.90;52.00
76293;DHT22;67256;51.154;4.164;2023-04-30T11:14:00;14.90;52.00
76293;DHT22;67256;51.154;4.164;2023-04-30T11:16:29;15.00;50.60
76293;DHT22;67256;51.154;4.164;2023-04-30T11:19:12;15.00;50.30
76293;DHT22;67256;51.154;4.164;2023-04-30T11:27:19;15.10;52.20
76293;DHT22;67256;51.154;4.164;2023-04-30T11:29:46;15.20;50.70
76293;DHT22;67256;51.154;4.164;2023-04-30T11:32:13;15.10;49.60
76293;DHT22;67256;51.154;4.164;2023-04-30T11:34:40;15.30;49.80
76293;DHT22;67256;51.154;4.164;2023-04-30T11:37:08;15.50;51.60
76293;DHT22;67256;51.154;4.164;2023-04-30T11:39:37;15.60;51.40
76293;DHT22;67256;51.154;4.164;2023-04-30T11:42:04;15.60;50.90
76293;DHT22;67256;51.154;4.164;2023-04-30T11:44:31;15.70;50.50
76293;DHT22;67256;51.154;4.164;2023-04-30T11:46:57;15.90;51.20
76293;DHT22;67256;51.154;4.164;2023-04-30T11:49:23;15.90;50.00
76293;DHT22;67256;51.154;4.164;2023-04-30T11:51:49;15.80;48.90
76293;DHT22;67256;51.154;4.164;2023-04-30T11:54:15;15.70;48.80
76293;DHT22;67256;51.154;4.164;2023-04-30T11:56:45;15.80;48.50
76293;DHT22;67256;51.154;4.164;2023-04-30T11:59:15;15.90;48.30
76293;DHT22;67256;51.154;4.164;2023-04-30T12:01:43;15.90;48.50
76293;DHT22;67256;51.154;4.164;2023-04-30T12:04:09;15.80;48.20
76293;DHT22;67256;51.154;4.164;2023-04-30T12:06:35;15.80;48.10
76293;DHT22;67256;51.154;4.164;2023-04-30T12:09:02;15.90;47.80
76293;DHT22;67256;51.154;4.164;2023-04-30T12:11:31;15.90;48.70
76293;DHT22;67256;51.154;4.164;2023-04-30T12:14:04;15.90;48.20
76293;DHT22;67256;51.154;4.164;2023-04-30T12:16:45;16.00;48.00
76293;DHT22;67256;51.154;4.164;2023-04-30T12:19:18;16.20;47.90
76293;DHT22;67256;51.154;4.164;2023-04-30T12:21:46;16.20;47.50
76293;DHT22;67256;51.154;4.164;2023-04-30T12:24:14;16.30;47.30
76293;DHT22;67256;51.154;4.164;2023-04-30T12:26:40;16.10;46.50
76293;DHT22;67256;51.154;4.164;2023-04-30T12:29:15;16.00;46.90
76293;DHT22;67256;51.154;4.164;2023-04-30T12:31:41;16.10;47.60
76293;DHT22;67256;51.154;4.164;2023-04-30T12:34:11;16.40;48.30
76293;DHT22;67256;51.154;4.164;2023-04-30T12:36:39;16.60;47.10
76293;DHT22;67256;51.154;4.164;2023-04-30T12:39:14;16.60;45.90
76293;DHT22;67256;51.154;4.164;2023-04-30T12:41:42;16.70;46.60
76293;DHT22;67256;51.154;4.164;2023-04-30T12:44:18;16.80;45.60
76293;DHT22;67256;51.154;4.164;2023-04-30T12:46:45;17.00;45.80
76293;DHT22;67256;51.154;4.164;2023-04-30T12:49:54;17.10;46.70
76293;DHT22;67256;51.154;4.164;2023-04-30T12:52:13;17.20;45.80
76293;DHT22;67256;51.154;4.164;2023-04-30T12:54:40;17.40;44.50
76293;DHT22;67256;51.154;4.164;2023-04-30T12:57:10;17.40;45.40
76293;DHT22;67256;51.154;4.164;2023-04-30T12:59:56;17.50;45.50
76293;DHT22;67256;51.154;4.164;2023-04-30T13:02:24;17.10;45.50
76293;DHT22;67256;51.154;4.164;2023-04-30T13:04:50;17.00;46.40
76293;DHT22;67256;51.154;4.164;2023-04-30T13:07:16;17.20;46.20
76293;DHT22;67256;51.154;4.164;2023-04-30T13:09:41;17.40;46.40
76293;DHT22;67256;51.154;4.164;2023-04-30T13:12:07;17.50;45.00
76293;DHT22;67256;51.154;4.164;2023-04-30T13:14:33;17.70;44.50
76293;DHT22;67256;51.154;4.164;2023-04-30T13:16:59;17.80;44.90
76293;DHT22;67256;51.154;4.164;2023-04-30T13:19:29;17.90;45.50
76293;DHT22;67256;51.154;4.164;2023-04-30T13:21:55;17.80;43.00
76293;DHT22;67256;51.154;4.164;2023-04-30T13:24:21;17.60;44.80
76293;DHT22;67256;51.154;4.164;2023-04-30T13:26:47;17.80;44.90
76293;DHT22;67256;51.154;4.164;2023-04-30T13:29:13;17.80;43.40
76293;DHT22;67256;51.154;4.164;2023-04-30T13:31:39;17.90;44.40
76293;DHT22;67256;51.154;4.164;2023-04-30T13:34:07;18.10;44.80
76293;DHT22;67256;51.154;4.164;2023-04-30T13:36:33;18.20;44.20
76293;DHT22;67256;51.154;4.164;2023-04-30T13:38:59;18.30;44.20
76293;DHT22;67256;51.154;4.164;2023-04-30T13:41:25;18.20;43.90
76293;DHT22;67256;51.154;4.164;2023-04-30T13:43:51;18.00;44.10
76293;DHT22;67256;51.154;4.164;2023-04-30T13:46:17;18.00;43.90
76293;DHT22;67256;51.154;4.164;2023-04-30T13:48:42;18.00;43.70
76293;DHT22;67256;51.154;4.164;2023-04-30T13:51:12;18.00;45.10
76293;DHT22;67256;51.154;4.164;2023-04-30T13:53:38;18.00;43.90
76293;DHT22;67256;51.154;4.164;2023-04-30T13:56:05;18.10;45.10
76293;DHT22;67256;51.154;4.164;2023-04-30T13:58:31;18.20;43.70
76293;DHT22;67256;51.154;4.164;2023-04-30T14:00:57;18.30;45.30
76293;DHT22;67256;51.154;4.164;2023-04-30T14:03:22;18.40;45.40
76293;DHT22;67256;51.154;4.164;2023-04-30T14:05:48;18.40;43.50
76293;DHT22;67256;51.154;4.164;2023-04-30T14:08:14;18.30;43.40
76293;DHT22;67256;51.154;4.164;2023-04-30T14:10:40;18.20;44.00
76293;DHT22;67256;51.154;4.164;2023-04-30T14:13:05;18.00;43.60
76293;DHT22;67256;51.154;4.164;2023-04-30T14:15:31;17.80;44.50
76293;DHT22;67256;51.154;4.164;2023-04-30T14:17:57;17.80;45.90
76293;DHT22;67256;51.154;4.164;2023-04-30T14:20:24;17.80;45.60
76293;DHT22;67256;51.154;4.164;2023-04-30T14:22:50;18.00;44.40
76293;DHT22;67256;51.154;4.164;2023-04-30T14:25:16;18.00;44.40
76293;DHT22;67256;51.154;4.164;2023-04-30T14:27:42;18.00;44.60
76293;DHT22;67256;51.154;4.164;2023-04-30T14:30:08;17.80;45.90
76293;DHT22;67256;51.154;4.164;2023-04-30T14:32:34;18.10;45.80
76293;DHT22;67256;51.154;4.164;2023-04-30T14:35:01;18.20;44.70
76293;DHT22;67256;51.154;4.164;2023-04-30T14:37:26;18.10;45.00
76293;DHT22;67256;51.154;4.164;2023-04-30T14:39:52;18.20;45.20
76293;DHT22;67256;51.154;4.164;2023-04-30T14:42:18;18.20;45.30
76293;DHT22;67256;51.154;4.164;2023-04-30T14:44:44;18.30;44.70
76293;DHT22;67256;51.154;4.164;2023-04-30T14:47:09;18.30;44.80
76293;DHT22;67256;51.154;4.164;2023-04-30T14:49:35;18.20;44.80
76293;DHT22;67256;51.154;4.164;2023-04-30T14:52:02;18.20;45.90
76293;DHT22;67256;51.154;4.164;2023-04-30T14:54:27;18.10;46.60
76293;DHT22;67256;51.154;4.164;2023-04-30T14:56:54;18.20;46.30
76293;DHT22;67256;51.154;4.164;2023-04-30T14:59:20;18.40;47.50
76293;DHT22;67256;51.154;4.164;2023-04-30T15:01:45;18.60;46.90
76293;DHT22;67256;51.154;4.164;2023-04-30T15:04:11;18.70;46.60
76293;DHT22;67256;51.154;4.164;2023-04-30T15:06:37;18.70;45.60
76293;DHT22;67256;51.154;4.164;2023-04-30T15:09:02;18.60;44.70
76293;DHT22;67256;51.154;4.164;2023-04-30T15:11:28;18.50;45.10
76293;DHT22;67256;51.154;4.164;2023-04-30T15:13:54;18.40;45.50
76293;DHT22;67256;51.154;4.164;2023-04-30T15:16:20;18.50;45.20
76293;DHT22;67256;51.154;4.164;2023-04-30T15:18:46;18.50;44.90
76293;DHT22;67256;51.154;4.164;2023-04-30T15:21:13;18.20;45.30
76293;DHT22;67256;51.154;4.164;2023-04-30T15:23:39;18.10;46.00
76293;DHT22;67256;51.154;4.164;2023-04-30T15:26:05;18.10;46.00
76293;DHT22;67256;51.154;4.164;2023-04-30T15:28:31;18.20;46.10
76293;DHT22;67256;51.154;4.164;2023-04-30T15:30:59;18.40;46.00
76293;DHT22;67256;51.154;4.164;2023-04-30T15:33:26;18.50;46.00
76293;DHT22;67256;51.154;4.164;2023-04-30T15:35:53;18.60;45.70
76293;DHT22;67256;51.154;4.164;2023-04-30T15:38:20;18.40;45.60
76293;DHT22;67256;51.154;4.164;2023-04-30T15:40:46;18.50;45.20
76293;DHT22;67256;51.154;4.164;2023-04-30T15:43:12;18.30;44.30
76293;DHT22;67256;51.154;4.164;2023-04-30T15:45:39;18.20;45.70
76293;DHT22;67256;51.154;4.164;2023-04-30T15:48:05;18.30;45.10
76293;DHT22;67256;51.154;4.164;2023-04-30T15:50:30;18.30;45.10
76293;DHT22;67256;51.154;4.164;2023-04-30T15:52:56;18.50;44.70
76293;DHT22;67256;51.154;4.164;2023-04-30T15:55:22;18.70;44.10
76293;DHT22;67256;51.154;4.164;2023-04-30T15:57:48;18.80;43.20